createdAt,value
2023-02-19T00:12:27.466Z,99.90
2023-02-19T00:33:33.013Z,99.90
2023-02-19T00:39:27.411Z,99.90
2023-02-19T00:46:49.603Z,99.90
2023-02-19T00:49:53.703Z,99.90
2023-02-19T01:00:24.755Z,99.90
2023-02-19T01:06:37.663Z,99.90
2023-02-19T01:09:20.147Z,99.90
2023-02-19T01:11:59.688Z,99.90
2023-02-19T01:14:30.219Z,99.90
2023-02-19T01:16:58.300Z,99.90
2023-02-19T01:19:29.127Z,99.90
2023-02-19T01:22:00.671Z,99.90
2023-02-19T01:28:46.308Z,99.90
2023-02-19T01:34:48.957Z,99.90
2023-02-19T01:37:17.948Z,99.90
2023-02-19T01:39:47.018Z,99.90
2023-02-19T01:42:24.520Z,99.90
2023-02-19T01:45:21.952Z,99.90
2023-02-19T01:48:08.936Z,99.90
2023-02-19T01:50:46.136Z,99.90
2023-02-19T01:53:19.436Z,99.90
2023-02-19T01:55:53.573Z,99.90
2023-02-19T01:58:26.290Z,99.90
2023-02-19T02:01:42.116Z,99.90
2023-02-19T02:04:13.025Z,99.90
2023-02-19T02:10:47.790Z,99.90
2023-02-19T02:13:19.120Z,99.90
2023-02-19T02:16:13.063Z,99.90
2023-02-19T02:19:09.420Z,99.90
2023-02-19T02:22:18.622Z,99.90
2023-02-19T02:25:12.605Z,99.90
2023-02-19T02:27:59.070Z,99.90
2023-02-19T02:30:44.935Z,99.90
2023-02-19T02:48:56.094Z,99.90
2023-02-19T03:02:24.520Z,99.90
2023-02-19T03:05:41.131Z,99.90
2023-02-19T03:12:02.197Z,99.90
2023-02-19T03:18:46.362Z,99.90
2023-02-19T03:29:04.181Z,99.90
2023-02-19T03:36:16.006Z,99.90
2023-02-19T04:03:30.139Z,99.90
2023-02-19T04:30:26.334Z,99.90
2023-02-19T04:32:54.303Z,99.90
2023-02-19T04:35:47.646Z,99.90
2023-02-19T04:38:15.244Z,99.90
2023-02-19T04:44:18.334Z,99.90
2023-02-19T04:46:46.794Z,99.90
2023-02-19T04:49:17.553Z,99.90
2023-02-19T04:51:50.839Z,99.90
2023-02-19T04:54:21.689Z,99.90
2023-02-19T04:56:50.993Z,99.90
2023-02-19T04:59:21.861Z,99.90
2023-02-19T05:02:00.222Z,99.90
2023-02-19T05:04:27.946Z,99.90
2023-02-19T05:07:03.282Z,99.90
2023-02-19T05:09:31.085Z,99.90
2023-02-19T05:12:00.488Z,99.90
2023-02-19T05:14:35.899Z,99.90
2023-02-19T05:17:05.358Z,99.90
2023-02-19T05:19:34.126Z,99.90
2023-02-19T05:22:07.666Z,99.90
2023-02-19T05:27:34.971Z,99.90
2023-02-19T05:30:06.284Z,99.90
2023-02-19T05:32:37.289Z,99.90
2023-02-19T05:35:08.346Z,99.90
2023-02-19T05:38:51.009Z,99.90
2023-02-19T05:41:30.288Z,99.90
2023-02-19T05:44:14.846Z,99.90
2023-02-19T05:46:44.042Z,99.90
2023-02-19T05:49:12.338Z,99.90
2023-02-19T05:52:25.901Z,99.90
2023-02-19T05:54:55.233Z,99.90
2023-02-19T05:57:25.154Z,99.90
2023-02-19T06:00:00.117Z,99.90
2023-02-19T06:02:31.235Z,99.90
2023-02-19T06:05:05.678Z,99.90
2023-02-19T06:07:48.292Z,99.90
2023-02-19T06:10:32.629Z,99.90
2023-02-19T06:13:00.632Z,99.90
2023-02-19T06:15:29.811Z,99.90
2023-02-19T06:18:04.270Z,99.90
2023-02-19T06:20:36.256Z,99.90
2023-02-19T06:23:06.717Z,99.90
2023-02-19T06:25:39.188Z,99.90
2023-02-19T06:28:10.309Z,99.90
2023-02-19T06:31:19.808Z,99.90
2023-02-19T06:34:16.482Z,99.90
2023-02-19T06:36:48.902Z,99.90
2023-02-19T06:39:25.124Z,99.90
2023-02-19T06:41:59.002Z,99.90
2023-02-19T06:44:33.968Z,99.90
2023-02-19T06:47:03.237Z,99.90
2023-02-19T06:49:35.922Z,99.90
2023-02-19T06:52:11.609Z,99.90
2023-02-19T06:58:54.795Z,99.90
2023-02-19T07:05:31.774Z,99.90
2023-02-19T07:08:00.555Z,99.90
2023-02-19T07:10:28.985Z,99.90
2023-02-19T07:13:29.398Z,99.90
2023-02-19T07:18:50.517Z,99.90
2023-02-19T07:21:21.590Z,99.90
2023-02-19T07:24:34.619Z,99.90
2023-02-19T07:27:10.772Z,99.90
2023-02-19T07:29:41.488Z,99.90
2023-02-19T07:32:09.918Z,99.90
2023-02-19T07:34:37.722Z,99.90
2023-02-19T07:37:05.611Z,99.90
2023-02-19T07:39:38.489Z,99.90
2023-02-19T07:42:06.168Z,99.90
2023-02-19T07:44:34.356Z,99.90
2023-02-19T07:47:05.397Z,99.90
2023-02-19T07:49:39.856Z,99.90
2023-02-19T07:52:14.118Z,99.90
2023-02-19T07:54:42.177Z,99.90
2023-02-19T07:57:10.446Z,99.90
2023-02-19T07:59:38.330Z,99.90
2023-02-19T08:06:03.551Z,99.90
2023-02-19T08:08:40.790Z,99.90
2023-02-19T08:14:13.330Z,99.90
2023-02-19T08:16:55.177Z,99.90
2023-02-19T08:19:28.496Z,99.90
2023-02-19T08:21:56.402Z,99.90
2023-02-19T08:24:37.998Z,99.90
2023-02-19T08:55:20.070Z,99.90
2023-02-19T08:57:50.314Z,99.90
2023-02-19T09:00:40.686Z,99.90
2023-02-19T09:03:12.225Z,99.90
2023-02-19T09:05:40.095Z,99.90
2023-02-19T09:08:10.862Z,99.90
2023-02-19T09:10:38.727Z,99.90
2023-02-19T09:13:06.360Z,99.90
2023-02-19T09:15:34.061Z,99.90
2023-02-19T09:18:19.410Z,99.90
2023-02-19T09:25:06.558Z,99.90
2023-02-19T09:27:41.582Z,99.90
2023-02-19T09:30:25.459Z,99.90
2023-02-19T09:36:07.901Z,99.90
2023-02-19T09:39:03.098Z,99.90
2023-02-19T09:41:54.706Z,99.90
2023-02-19T09:44:43.389Z,99.90
2023-02-19T09:47:35.848Z,99.90
2023-02-19T09:50:36.380Z,99.90
2023-02-19T09:57:35.063Z,99.90
2023-02-19T10:00:40.391Z,99.90
2023-02-19T10:07:42.275Z,99.90
2023-02-19T10:22:04.341Z,99.90
2023-02-19T10:24:42.960Z,99.90
2023-02-19T10:27:15.177Z,99.90
2023-02-19T10:29:47.994Z,99.90
2023-02-19T10:32:21.200Z,99.90
2023-02-19T10:35:13.781Z,99.90
2023-02-19T10:37:50.978Z,99.90
2023-02-19T10:40:21.602Z,99.90
2023-02-19T10:42:52.242Z,99.90
2023-02-19T10:45:53.174Z,99.90
2023-02-19T10:48:28.335Z,99.90
2023-02-19T10:50:58.330Z,99.90
2023-02-19T10:53:59.125Z,99.90
2023-02-19T10:56:30.028Z,99.90
2023-02-19T10:59:24.340Z,99.90
2023-02-19T11:01:56.058Z,99.90
2023-02-19T11:04:26.091Z,99.90
2023-02-19T11:06:53.982Z,99.90
2023-02-19T11:09:46.826Z,99.90
2023-02-19T11:12:23.100Z,99.90
2023-02-19T11:14:50.967Z,99.90
2023-02-19T11:17:34.023Z,99.90
2023-02-19T11:20:14.312Z,99.90
2023-02-19T11:22:46.998Z,99.90
2023-02-19T11:25:17.852Z,99.90
2023-02-19T11:28:07.617Z,99.90
2023-02-19T11:30:43.160Z,99.90
2023-02-19T11:33:16.757Z,99.90
2023-02-19T11:35:46.249Z,99.90
2023-02-19T11:38:16.518Z,99.90
2023-02-19T11:41:09.431Z,99.90
2023-02-19T11:43:47.371Z,99.90
2023-02-19T11:46:27.137Z,99.90
2023-02-19T11:49:13.352Z,99.90
2023-02-19T11:52:03.783Z,99.90
2023-02-19T11:54:55.202Z,99.90
2023-02-19T11:57:47.544Z,99.90
2023-02-19T12:00:28.269Z,99.90
2023-02-19T12:03:03.307Z,99.90
2023-02-19T12:05:49.344Z,99.90
2023-02-19T12:08:50.515Z,99.90
2023-02-19T12:11:27.483Z,99.90
2023-02-19T12:14:01.128Z,99.90
2023-02-19T12:16:52.731Z,99.90
2023-02-19T12:19:29.578Z,99.90
2023-02-19T12:22:33.383Z,99.90
2023-02-19T12:25:19.586Z,99.90
2023-02-19T12:28:03.729Z,99.90
2023-02-19T12:30:59.749Z,99.30
2023-02-19T12:33:49.147Z,99.10
2023-02-19T12:36:25.500Z,99.70
2023-02-19T12:39:22.980Z,99.20
2023-02-19T12:42:03.934Z,99.90
2023-02-19T12:44:53.239Z,99.90
2023-02-19T12:47:28.646Z,98.90
2023-02-19T12:50:19.756Z,96.70
2023-02-19T12:52:52.843Z,94.40
2023-02-19T12:55:40.029Z,94.90
2023-02-19T12:58:16.882Z,94.40
2023-02-19T13:00:53.628Z,94.50
2023-02-19T13:03:37.491Z,93.90
2023-02-19T13:06:33.588Z,94.90
2023-02-19T13:09:28.400Z,95.30
2023-02-19T13:12:11.800Z,95.70
2023-02-19T13:14:57.614Z,96.40
2023-02-19T13:17:45.080Z,98.50
2023-02-19T13:20:41.161Z,99.90
2023-02-19T13:23:40.467Z,99.90
2023-02-19T13:26:30.665Z,99.90
2023-02-19T13:29:16.471Z,99.90
2023-02-19T13:32:14.664Z,99.90
2023-02-19T13:35:23.805Z,99.90
2023-02-19T13:37:53.780Z,99.90
2023-02-19T13:40:39.529Z,99.90
2023-02-19T13:43:23.670Z,99.90
2023-02-19T13:46:00.736Z,99.90
2023-02-19T13:48:38.101Z,99.90
2023-02-19T13:51:23.728Z,99.90
2023-02-19T13:53:58.587Z,99.90
2023-02-19T13:56:34.982Z,99.90
2023-02-19T13:59:11.304Z,99.90
2023-02-19T14:01:51.862Z,99.90
2023-02-19T14:04:21.074Z,99.90
2023-02-19T14:07:03.910Z,99.90
2023-02-19T14:09:37.794Z,99.90
2023-02-19T14:12:37.622Z,99.90
2023-02-19T14:15:41.655Z,99.90
2023-02-19T14:18:41.465Z,99.90
2023-02-19T14:21:36.553Z,99.90
2023-02-19T14:24:14.728Z,99.90
2023-02-19T14:26:42.832Z,99.90
2023-02-19T14:29:15.129Z,99.90
2023-02-19T14:31:45.726Z,99.90
2023-02-19T14:34:22.961Z,99.90
2023-02-19T14:37:01.087Z,99.90
2023-02-19T14:39:35.198Z,99.90
2023-02-19T14:42:06.876Z,99.90
2023-02-19T14:44:48.877Z,99.90
2023-02-19T14:47:23.458Z,99.90
2023-02-19T14:49:55.425Z,99.90
2023-02-19T14:52:29.148Z,99.90
2023-02-19T14:55:32.737Z,99.90
2023-02-19T14:58:05.023Z,99.90
2023-02-19T15:00:38.316Z,99.90
2023-02-19T15:03:06.948Z,99.90
2023-02-19T15:05:39.467Z,99.90
2023-02-19T15:08:18.690Z,99.90
2023-02-19T15:10:47.096Z,99.90
2023-02-19T15:13:23.560Z,99.90
2023-02-19T15:15:51.224Z,99.90
2023-02-19T15:18:22.565Z,99.90
2023-02-19T15:20:50.900Z,99.90
2023-02-19T15:23:24.119Z,99.90
2023-02-19T15:25:52.749Z,99.90
2023-02-19T15:28:26.298Z,99.90
2023-02-19T15:30:59.912Z,99.90
2023-02-19T15:33:30.006Z,99.90
2023-02-19T15:36:01.708Z,99.90
2023-02-19T15:38:29.992Z,99.90
2023-02-19T15:40:58.779Z,99.90
2023-02-19T15:43:40.656Z,99.90
2023-02-19T15:46:20.440Z,99.90
2023-02-19T15:48:50.841Z,99.90
2023-02-19T15:51:37.845Z,99.90
2023-02-19T15:54:27.083Z,99.90
2023-02-19T15:56:58.443Z,99.90
2023-02-19T15:59:40.340Z,99.90
2023-02-19T16:02:13.455Z,99.90
2023-02-19T16:04:43.956Z,99.90
2023-02-19T16:07:34.259Z,99.90
2023-02-19T16:10:30.935Z,99.90
2023-02-19T16:13:14.999Z,99.90
2023-02-19T16:21:45.012Z,99.90
2023-02-19T16:24:36.552Z,99.90
2023-02-19T16:27:05.292Z,99.90
2023-02-19T16:29:37.284Z,99.90
2023-02-19T16:32:15.853Z,99.90
2023-02-19T16:34:49.323Z,99.90
2023-02-19T16:37:36.203Z,99.90
2023-02-19T16:41:10.146Z,99.90
2023-02-19T16:43:52.750Z,99.90
2023-02-19T16:46:22.143Z,99.90
2023-02-19T16:48:50.870Z,99.90
2023-02-19T16:51:25.822Z,99.90
2023-02-19T16:53:58.898Z,99.90
2023-02-19T16:57:26.943Z,99.90
2023-02-19T17:00:56.662Z,99.90
2023-02-19T17:03:26.381Z,99.90
2023-02-19T17:13:23.790Z,99.90
2023-02-19T17:16:10.498Z,99.90
2023-02-19T17:48:17.079Z,99.90
2023-02-19T17:50:47.796Z,99.90
2023-02-19T17:53:18.829Z,99.90
2023-02-19T17:55:46.556Z,99.90
2023-02-19T17:58:20.516Z,99.90
2023-02-19T18:00:51.251Z,99.90
2023-02-19T18:03:19.280Z,99.90
2023-02-19T18:05:49.215Z,99.90
2023-02-19T18:08:29.751Z,99.90
2023-02-19T18:11:04.417Z,99.90
2023-02-19T18:13:35.454Z,99.90
2023-02-19T18:16:05.537Z,99.90
2023-02-19T18:18:37.153Z,99.90
2023-02-19T18:21:09.903Z,99.90
2023-02-19T18:23:43.381Z,99.90
2023-02-19T18:26:11.728Z,99.90
2023-02-19T18:28:39.821Z,99.90
2023-02-19T18:31:08.216Z,99.90
2023-02-19T18:33:35.810Z,99.90
2023-02-19T18:36:04.354Z,99.90
2023-02-19T18:38:34.518Z,99.90
2023-02-19T18:41:02.471Z,99.90
2023-02-19T18:43:30.106Z,99.90
2023-02-19T18:45:57.713Z,99.90
2023-02-19T18:48:25.214Z,99.90
2023-02-19T18:50:56.322Z,99.90
2023-02-19T18:53:24.493Z,99.90
2023-02-19T18:55:59.911Z,99.90
2023-02-19T18:58:32.417Z,99.90
2023-02-19T19:01:00.133Z,99.90
2023-02-19T19:03:30.738Z,99.90
2023-02-19T19:05:59.797Z,99.90
2023-02-19T19:08:39.485Z,99.90
2023-02-19T19:11:13.684Z,99.90
2023-02-19T19:13:44.396Z,99.90
2023-02-19T19:16:16.195Z,99.90
2023-02-19T19:19:46.140Z,99.90
2023-02-19T19:22:30.124Z,99.90
2023-02-19T19:24:58.594Z,99.90
2023-02-19T19:27:30.096Z,99.90
2023-02-19T19:29:58.212Z,99.90
2023-02-19T19:32:28.634Z,99.90
2023-02-19T19:34:58.107Z,99.90
2023-02-19T19:37:28.443Z,99.90
2023-02-19T19:39:56.829Z,99.90
2023-02-19T21:31:13.920Z,99.90
2023-02-19T21:33:59.642Z,99.90
2023-02-19T21:36:33.792Z,99.90
2023-02-19T22:23:34.308Z,99.90
2023-02-19T22:33:07.164Z,99.90
2023-02-19T22:37:12.147Z,99.90
2023-02-19T22:43:39.567Z,99.90
2023-02-19T22:54:30.315Z,99.90
2023-02-19T23:09:43.913Z,99.90
2023-02-19T23:19:19.840Z,99.90
2023-02-19T23:22:07.302Z,99.90
2023-02-19T23:29:02.781Z,99.90
2023-02-19T23:31:45.183Z,99.90
2023-02-19T23:34:21.589Z,99.90
2023-02-19T23:37:49.058Z,99.90
2023-02-19T23:40:30.334Z,99.90
2023-02-19T23:43:07.999Z,99.90
2023-02-19T23:46:56.673Z,99.90
2023-02-19T23:50:36.713Z,99.90
2023-02-19T23:53:33.176Z,99.90
2023-02-19T23:56:07.416Z,99.90
2023-02-19T23:58:56.697Z,99.90
